sensor_id;sensor_type;location;lat;lon;timestamp;temperature;humidity
54642;DHT22;40536;53.194;5.728;2022-12-19T00:02:09;0.60;99.90
54642;DHT22;40536;53.194;5.728;2022-12-19T00:04:34;0.60;99.90
54642;DHT22;40536;53.194;5.728;2022-12-19T00:07:00;0.60;99.90
54642;DHT22;40536;53.194;5.728;2022-12-19T00:09:26;0.60;99.90
54642;DHT22;40536;53.194;5.728;2022-12-19T00:11:52;0.60;99.90
54642;DHT22;40536;53.194;5.728;2022-12-19T00:14:18;0.60;99.90
54642;DHT22;40536;53.194;5.728;2022-12-19T00:16:44;0.70;99.90
54642;DHT22;40536;53.194;5.728;2022-12-19T00:19:10;0.70;99.90
54642;DHT22;40536;53.194;5.728;2022-12-19T00:21:36;0.70;99.90
54642;DHT22;40536;53.194;5.728;2022-12-19T00:24:04;0.70;99.90
54642;DHT22;40536;53.194;5.728;2022-12-19T00:26:32;0.70;99.90
54642;DHT22;40536;53.194;5.728;2022-12-19T00:29:00;0.30;99.90
54642;DHT22;40536;53.194;5.728;2022-12-19T00:31:29;0.70;99.90
54642;DHT22;40536;53.194;5.728;2022-12-19T00:33:55;0.80;99.90
54642;DHT22;40536;53.194;5.728;2022-12-19T00:36:23;0.70;99.90
54642;DHT22;40536;53.194;5.728;2022-12-19T00:38:51;0.80;99.90
54642;DHT22;40536;53.194;5.728;2022-12-19T00:41:22;0.80;99.90
54642;DHT22;40536;53.194;5.728;2022-12-19T00:43:57;0.80;99.90
54642;DHT22;40536;53.194;5.728;2022-12-19T00:46:24;0.80;99.90
54642;DHT22;40536;53.194;5.728;2022-12-19T00:48:50;0.80;99.90
54642;DHT22;40536;53.194;5.728;2022-12-19T00:51:19;0.90;99.90
54642;DHT22;40536;53.194;5.728;2022-12-19T00:53:46;0.90;99.90
54642;DHT22;40536;53.194;5.728;2022-12-19T00:56:15;0.90;99.90
54642;DHT22;40536;53.194;5.728;2022-12-19T00:58:41;0.90;99.90
54642;DHT22;40536;53.194;5.728;2022-12-19T01:01:09;0.80;99.90
54642;DHT22;40536;53.194;5.728;2022-12-19T01:03:35;0.90;99.90
54642;DHT22;40536;53.194;5.728;2022-12-19T01:06:00;0.90;99.90
54642;DHT22;40536;53.194;5.728;2022-12-19T01:08:26;0.90;99.90
54642;DHT22;40536;53.194;5.728;2022-12-19T01:10:52;0.90;99.90
54642;DHT22;40536;53.194;5.728;2022-12-19T01:13:19;0.90;99.90
54642;DHT22;40536;53.194;5.728;2022-12-19T01:15:46;0.90;99.90
54642;DHT22;40536;53.194;5.728;2022-12-19T01:18:12;0.90;99.90
54642;DHT22;40536;53.194;5.728;2022-12-19T01:20:39;0.90;99.90
54642;DHT22;40536;53.194;5.728;2022-12-19T01:23:06;0.90;99.90
54642;DHT22;40536;53.194;5.728;2022-12-19T01:25:33;0.90;99.90
54642;DHT22;40536;53.194;5.728;2022-12-19T01:27:59;1.00;99.90
54642;DHT22;40536;53.194;5.728;2022-12-19T01:30:26;1.00;99.90
54642;DHT22;40536;53.194;5.728;2022-12-19T01:32:52;1.00;99.90
54642;DHT22;40536;53.194;5.728;2022-12-19T01:35:17;1.00;99.90
54642;DHT22;40536;53.194;5.728;2022-12-19T01:37:43;1.00;99.90
54642;DHT22;40536;53.194;5.728;2022-12-19T01:40:10;1.00;99.90
54642;DHT22;40536;53.194;5.728;2022-12-19T01:42:37;1.00;99.90
54642;DHT22;40536;53.194;5.728;2022-12-19T01:47:30;1.00;99.90
54642;DHT22;40536;53.194;5.728;2022-12-19T01:49:57;1.00;99.90
54642;DHT22;40536;53.194;5.728;2022-12-19T01:52:23;1.00;99.90
54642;DHT22;40536;53.194;5.728;2022-12-19T01:54:49;1.00;99.90
54642;DHT22;40536;53.194;5.728;2022-12-19T01:57:17;1.00;99.90
54642;DHT22;40536;53.194;5.728;2022-12-19T01:59:53;1.40;99.90
54642;DHT22;40536;53.194;5.728;2022-12-19T02:03:00;1.70;99.90
54642;DHT22;40536;53.194;5.728;2022-12-19T02:05:19;1.10;99.90
54642;DHT22;40536;53.194;5.728;2022-12-19T02:07:45;1.10;99.90
54642;DHT22;40536;53.194;5.728;2022-12-19T02:10:11;1.10;99.90
54642;DHT22;40536;53.194;5.728;2022-12-19T02:12:40;1.10;99.90
54642;DHT22;40536;53.194;5.728;2022-12-19T02:15:08;1.10;99.90
54642;DHT22;40536;53.194;5.728;2022-12-19T02:25:56;1.20;99.90
54642;DHT22;40536;53.194;5.728;2022-12-19T02:28:33;1.20;99.90
54642;DHT22;40536;53.194;5.728;2022-12-19T02:34:22;1.20;99.90
54642;DHT22;40536;53.194;5.728;2022-12-19T02:36:54;1.20;99.90
54642;DHT22;40536;53.194;5.728;2022-12-19T02:39:33;1.20;99.90
54642;DHT22;40536;53.194;5.728;2022-12-19T02:42:04;1.20;99.90
54642;DHT22;40536;53.194;5.728;2022-12-19T02:44:34;1.20;99.90
54642;DHT22;40536;53.194;5.728;2022-12-19T02:47:03;1.20;99.90
54642;DHT22;40536;53.194;5.728;2022-12-19T02:49:32;1.20;99.90
54642;DHT22;40536;53.194;5.728;2022-12-19T02:55:03;1.30;99.90
54642;DHT22;40536;53.194;5.728;2022-12-19T03:00:24;1.30;99.90
54642;DHT22;40536;53.194;5.728;2022-12-19T03:08:27;1.40;99.90
54642;DHT22;40536;53.194;5.728;2022-12-19T03:11:09;1.40;99.90
54642;DHT22;40536;53.194;5.728;2022-12-19T03:13:58;1.40;99.90
54642;DHT22;40536;53.194;5.728;2022-12-19T03:16:25;1.40;99.90
54642;DHT22;40536;53.194;5.728;2022-12-19T03:18:55;2.40;99.90
54642;DHT22;40536;53.194;5.728;2022-12-19T03:24:00;1.50;99.90
54642;DHT22;40536;53.194;5.728;2022-12-19T03:26:33;1.50;99.90
54642;DHT22;40536;53.194;5.728;2022-12-19T03:29:11;1.50;99.90
54642;DHT22;40536;53.194;5.728;2022-12-19T03:31:39;1.60;99.90
54642;DHT22;40536;53.194;5.728;2022-12-19T03:34:12;1.50;99.90
54642;DHT22;40536;53.194;5.728;2022-12-19T03:36:42;1.60;99.90
54642;DHT22;40536;53.194;5.728;2022-12-19T03:39:10;1.60;99.90
54642;DHT22;40536;53.194;5.728;2022-12-19T03:41:37;1.60;99.90
54642;DHT22;40536;53.194;5.728;2022-12-19T03:44:22;1.60;99.90
54642;DHT22;40536;53.194;5.728;2022-12-19T03:46:56;3.40;99.90
54642;DHT22;40536;53.194;5.728;2022-12-19T03:49:23;1.60;99.90
54642;DHT22;40536;53.194;5.728;2022-12-19T03:52:01;3.40;99.90
54642;DHT22;40536;53.194;5.728;2022-12-19T03:54:37;1.70;99.90
54642;DHT22;40536;53.194;5.728;2022-12-19T03:57:34;1.80;99.90
54642;DHT22;40536;53.194;5.728;2022-12-19T04:00:05;1.70;99.90
54642;DHT22;40536;53.194;5.728;2022-12-19T04:02:34;1.80;99.90
54642;DHT22;40536;53.194;5.728;2022-12-19T04:05:08;1.80;99.90
54642;DHT22;40536;53.194;5.728;2022-12-19T04:07:35;1.80;99.90
54642;DHT22;40536;53.194;5.728;2022-12-19T04:10:05;3.40;99.90
54642;DHT22;40536;53.194;5.728;2022-12-19T04:12:37;1.80;99.90
54642;DHT22;40536;53.194;5.728;2022-12-19T04:15:04;1.80;99.90
54642;DHT22;40536;53.194;5.728;2022-12-19T04:20:15;1.90;99.90
54642;DHT22;40536;53.194;5.728;2022-12-19T04:22:53;1.90;99.90
54642;DHT22;40536;53.194;5.728;2022-12-19T04:25:28;2.00;99.90
54642;DHT22;40536;53.194;5.728;2022-12-19T04:27:58;2.60;99.90
54642;DHT22;40536;53.194;5.728;2022-12-19T04:30:26;3.80;99.90
54642;DHT22;40536;53.194;5.728;2022-12-19T04:32:53;2.00;99.90
54642;DHT22;40536;53.194;5.728;2022-12-19T04:35:19;3.20;99.90
54642;DHT22;40536;53.194;5.728;2022-12-19T04:37:44;2.00;99.90
54642;DHT22;40536;53.194;5.728;2022-12-19T04:40:10;2.10;99.90
54642;DHT22;40536;53.194;5.728;2022-12-19T04:42:36;2.20;99.90
54642;DHT22;40536;53.194;5.728;2022-12-19T04:45:03;4.00;99.90
54642;DHT22;40536;53.194;5.728;2022-12-19T04:47:29;2.20;99.90
54642;DHT22;40536;53.194;5.728;2022-12-19T04:49:55;3.60;99.90
54642;DHT22;40536;53.194;5.728;2022-12-19T04:52:21;2.20;99.90
54642;DHT22;40536;53.194;5.728;2022-12-19T04:54:46;2.30;99.90
54642;DHT22;40536;53.194;5.728;2022-12-19T04:57:12;2.40;99.90
54642;DHT22;40536;53.194;5.728;2022-12-19T04:59:38;4.00;99.90
54642;DHT22;40536;53.194;5.728;2022-12-19T05:02:06;2.50;99.90
54642;DHT22;40536;53.194;5.728;2022-12-19T05:04:32;4.00;99.90
54642;DHT22;40536;53.194;5.728;2022-12-19T05:06:59;3.50;99.90
54642;DHT22;40536;53.194;5.728;2022-12-19T05:09:24;2.60;99.90
54642;DHT22;40536;53.194;5.728;2022-12-19T05:11:50;4.00;99.90
54642;DHT22;40536;53.194;5.728;2022-12-19T05:14:16;2.60;99.90
54642;DHT22;40536;53.194;5.728;2022-12-19T05:16:41;4.30;99.90
54642;DHT22;40536;53.194;5.728;2022-12-19T05:19:07;2.70;99.90
54642;DHT22;40536;53.194;5.728;2022-12-19T05:21:33;2.70;99.90
54642;DHT22;40536;53.194;5.728;2022-12-19T05:23:58;2.70;99.90
54642;DHT22;40536;53.194;5.728;2022-12-19T05:26:24;2.70;99.90
54642;DHT22;40536;53.194;5.728;2022-12-19T05:28:54;2.80;99.90
54642;DHT22;40536;53.194;5.728;2022-12-19T05:31:20;3.80;99.90
54642;DHT22;40536;53.194;5.728;2022-12-19T05:33:47;4.00;99.90
54642;DHT22;40536;53.194;5.728;2022-12-19T05:36:14;2.80;99.90
54642;DHT22;40536;53.194;5.728;2022-12-19T05:38:40;4.70;99.90
54642;DHT22;40536;53.194;5.728;2022-12-19T05:41:17;4.60;99.90
54642;DHT22;40536;53.194;5.728;2022-12-19T05:43:45;2.30;99.90
54642;DHT22;40536;53.194;5.728;2022-12-19T05:46:11;2.50;99.90
54642;DHT22;40536;53.194;5.728;2022-12-19T05:48:37;2.90;99.90
54642;DHT22;40536;53.194;5.728;2022-12-19T05:51:03;4.80;99.90
54642;DHT22;40536;53.194;5.728;2022-12-19T05:53:36;3.00;99.90
54642;DHT22;40536;53.194;5.728;2022-12-19T05:56:07;3.80;99.90
54642;DHT22;40536;53.194;5.728;2022-12-19T05:58:59;3.80;99.90
54642;DHT22;40536;53.194;5.728;2022-12-19T06:01:30;1.80;99.90
54642;DHT22;40536;53.194;5.728;2022-12-19T06:03:56;4.80;99.90
54642;DHT22;40536;53.194;5.728;2022-12-19T06:06:24;3.10;99.90
54642;DHT22;40536;53.194;5.728;2022-12-19T06:08:55;4.90;99.90
54642;DHT22;40536;53.194;5.728;2022-12-19T06:11:21;4.80;99.90
54642;DHT22;40536;53.194;5.728;2022-12-19T06:13:50;3.10;99.90
54642;DHT22;40536;53.194;5.728;2022-12-19T06:16:17;4.60;99.90
54642;DHT22;40536;53.194;5.728;2022-12-19T06:18:44;2.30;99.90
54642;DHT22;40536;53.194;5.728;2022-12-19T06:21:15;3.10;99.90
54642;DHT22;40536;53.194;5.728;2022-12-19T06:23:42;4.80;99.90
54642;DHT22;40536;53.194;5.728;2022-12-19T06:26:10;4.70;99.90
54642;DHT22;40536;53.194;5.728;2022-12-19T06:28:36;4.80;99.90
54642;DHT22;40536;53.194;5.728;2022-12-19T06:31:03;5.10;99.90
54642;DHT22;40536;53.194;5.728;2022-12-19T06:33:30;3.50;99.90
54642;DHT22;40536;53.194;5.728;2022-12-19T06:36:03;4.90;99.90
54642;DHT22;40536;53.194;5.728;2022-12-19T06:38:31;3.50;99.90
54642;DHT22;40536;53.194;5.728;2022-12-19T06:40:57;4.00;99.90
54642;DHT22;40536;53.194;5.728;2022-12-19T06:43:41;5.30;99.90
54642;DHT22;40536;53.194;5.728;2022-12-19T06:46:06;3.50;99.90
54642;DHT22;40536;53.194;5.728;2022-12-19T06:48:33;5.10;99.90
54642;DHT22;40536;53.194;5.728;2022-12-19T06:50:58;3.30;99.90
54642;DHT22;40536;53.194;5.728;2022-12-19T06:53:24;5.40;99.90
54642;DHT22;40536;53.194;5.728;2022-12-19T06:55:52;5.60;99.90
54642;DHT22;40536;53.194;5.728;2022-12-19T06:58:18;5.50;99.90
54642;DHT22;40536;53.194;5.728;2022-12-19T07:00:43;5.70;99.90
54642;DHT22;40536;53.194;5.728;2022-12-19T07:03:12;5.80;99.90
54642;DHT22;40536;53.194;5.728;2022-12-19T07:05:43;5.40;99.90
54642;DHT22;40536;53.194;5.728;2022-12-19T07:08:12;2.80;99.90
54642;DHT22;40536;53.194;5.728;2022-12-19T07:10:38;5.80;99.90
54642;DHT22;40536;53.194;5.728;2022-12-19T07:13:04;5.50;99.90
54642;DHT22;40536;53.194;5.728;2022-12-19T07:15:30;5.40;99.90
54642;DHT22;40536;53.194;5.728;2022-12-19T07:17:58;5.90;99.90
54642;DHT22;40536;53.194;5.728;2022-12-19T07:20:25;6.00;99.90
54642;DHT22;40536;53.194;5.728;2022-12-19T07:22:51;5.80;99.90
54642;DHT22;40536;53.194;5.728;2022-12-19T07:25:17;6.00;99.90
54642;DHT22;40536;53.194;5.728;2022-12-19T07:27:43;5.80;99.90
54642;DHT22;40536;53.194;5.728;2022-12-19T07:30:10;6.40;99.90
54642;DHT22;40536;53.194;5.728;2022-12-19T07:32:36;4.60;99.90
54642;DHT22;40536;53.194;5.728;2022-12-19T07:35:04;6.50;99.90
54642;DHT22;40536;53.194;5.728;2022-12-19T07:37:30;4.80;99.90
54642;DHT22;40536;53.194;5.728;2022-12-19T07:39:55;6.20;99.90
54642;DHT22;40536;53.194;5.728;2022-12-19T07:42:21;5.60;99.90
54642;DHT22;40536;53.194;5.728;2022-12-19T07:44:47;6.60;99.90
54642;DHT22;40536;53.194;5.728;2022-12-19T07:47:13;6.50;99.90
54642;DHT22;40536;53.194;5.728;2022-12-19T07:52:05;4.90;99.90
54642;DHT22;40536;53.194;5.728;2022-12-19T07:54:30;5.20;99.90
54642;DHT22;40536;53.194;5.728;2022-12-19T07:56:56;5.00;99.90
54642;DHT22;40536;53.194;5.728;2022-12-19T07:59:22;6.00;99.90
54642;DHT22;40536;53.194;5.728;2022-12-19T08:01:47;6.50;99.90
54642;DHT22;40536;53.194;5.728;2022-12-19T08:04:15;6.70;99.90
54642;DHT22;40536;53.194;5.728;2022-12-19T08:06:41;5.30;99.90
54642;DHT22;40536;53.194;5.728;2022-12-19T08:09:07;5.40;99.90
54642;DHT22;40536;53.194;5.728;2022-12-19T08:11:32;5.40;99.90
54642;DHT22;40536;53.194;5.728;2022-12-19T08:13:58;6.60;99.90
54642;DHT22;40536;53.194;5.728;2022-12-19T08:16:25;6.30;99.90
54642;DHT22;40536;53.194;5.728;2022-12-19T08:18:51;6.60;99.90
54642;DHT22;40536;53.194;5.728;2022-12-19T08:21:17;6.80;99.90
54642;DHT22;40536;53.194;5.728;2022-12-19T08:23:43;6.80;99.90
54642;DHT22;40536;53.194;5.728;2022-12-19T08:26:12;5.70;99.90
54642;DHT22;40536;53.194;5.728;2022-12-19T08:28:38;5.70;99.90
54642;DHT22;40536;53.194;5.728;2022-12-19T08:31:11;6.40;99.90
54642;DHT22;40536;53.194;5.728;2022-12-19T08:33:38;5.70;99.90
54642;DHT22;40536;53.194;5.728;2022-12-19T08:36:07;7.00;99.90
54642;DHT22;40536;53.194;5.728;2022-12-19T08:38:34;5.70;99.90
54642;DHT22;40536;53.194;5.728;2022-12-19T08:43:30;5.80;99.90
54642;DHT22;40536;53.194;5.728;2022-12-19T08:45:57;6.90;99.90
54642;DHT22;40536;53.194;5.728;2022-12-19T08:48:22;5.90;99.90
54642;DHT22;40536;53.194;5.728;2022-12-19T08:50:52;5.90;99.90
54642;DHT22;40536;53.194;5.728;2022-12-19T08:53:19;6.30;99.90
54642;DHT22;40536;53.194;5.728;2022-12-19T08:55:45;7.60;99.90
54642;DHT22;40536;53.194;5.728;2022-12-19T08:58:11;6.70;99.90
54642;DHT22;40536;53.194;5.728;2022-12-19T09:00:37;6.30;99.90
54642;DHT22;40536;53.194;5.728;2022-12-19T09:03:03;6.20;99.90
54642;DHT22;40536;53.194;5.728;2022-12-19T09:05:29;7.60;99.90
54642;DHT22;40536;53.194;5.728;2022-12-19T09:07:55;6.40;99.90
54642;DHT22;40536;53.194;5.728;2022-12-19T09:10:21;6.40;99.90
54642;DHT22;40536;53.194;5.728;2022-12-19T09:12:46;7.90;99.90
54642;DHT22;40536;53.194;5.728;2022-12-19T09:15:12;7.00;99.90
54642;DHT22;40536;53.194;5.728;2022-12-19T09:17:38;7.00;99.90
54642;DHT22;40536;53.194;5.728;2022-12-19T09:20:04;6.60;99.90
54642;DHT22;40536;53.194;5.728;2022-12-19T09:22:30;6.70;99.90
54642;DHT22;40536;53.194;5.728;2022-12-19T09:24:56;7.30;99.90
54642;DHT22;40536;53.194;5.728;2022-12-19T09:27:22;7.20;99.90
54642;DHT22;40536;53.194;5.728;2022-12-19T09:29:48;7.90;99.90
54642;DHT22;40536;53.194;5.728;2022-12-19T09:32:14;6.90;99.90
54642;DHT22;40536;53.194;5.728;2022-12-19T09:34:40;8.00;99.90
54642;DHT22;40536;53.194;5.728;2022-12-19T09:37:08;7.70;99.90
54642;DHT22;40536;53.194;5.728;2022-12-19T09:39:34;7.30;99.90
54642;DHT22;40536;53.194;5.728;2022-12-19T09:47:31;6.90;99.90
54642;DHT22;40536;53.194;5.728;2022-12-19T09:49:58;8.00;99.90
54642;DHT22;40536;53.194;5.728;2022-12-19T09:52:41;7.60;99.90
54642;DHT22;40536;53.194;5.728;2022-12-19T09:55:27;7.00;99.90
54642;DHT22;40536;53.194;5.728;2022-12-19T10:00:42;7.00;99.90
54642;DHT22;40536;53.194;5.728;2022-12-19T10:06:23;7.20;99.90
54642;DHT22;40536;53.194;5.728;2022-12-19T10:08:50;7.60;99.90
54642;DHT22;40536;53.194;5.728;2022-12-19T10:28:53;7.30;99.90
54642;DHT22;40536;53.194;5.728;2022-12-19T10:31:34;7.20;99.90
54642;DHT22;40536;53.194;5.728;2022-12-19T10:34:22;8.40;99.90
54642;DHT22;40536;53.194;5.728;2022-12-19T10:36:53;7.30;99.90
54642;DHT22;40536;53.194;5.728;2022-12-19T10:39:34;7.50;99.90
54642;DHT22;40536;53.194;5.728;2022-12-19T10:42:18;7.30;99.90
54642;DHT22;40536;53.194;5.728;2022-12-19T10:44:48;7.20;99.90
54642;DHT22;40536;53.194;5.728;2022-12-19T10:47:16;7.80;99.90
54642;DHT22;40536;53.194;5.728;2022-12-19T10:49:42;7.40;99.90
54642;DHT22;40536;53.194;5.728;2022-12-19T10:52:09;7.40;99.90
54642;DHT22;40536;53.194;5.728;2022-12-19T10:57:25;7.30;99.90
54642;DHT22;40536;53.194;5.728;2022-12-19T11:05:05;7.50;99.90
54642;DHT22;40536;53.194;5.728;2022-12-19T11:07:31;7.40;99.90
54642;DHT22;40536;53.194;5.728;2022-12-19T11:09:57;7.70;99.90
54642;DHT22;40536;53.194;5.728;2022-12-19T11:12:24;8.10;99.90
54642;DHT22;40536;53.194;5.728;2022-12-19T11:17:36;7.40;99.90
54642;DHT22;40536;53.194;5.728;2022-12-19T11:20:20;7.70;99.90
54642;DHT22;40536;53.194;5.728;2022-12-19T11:22:53;7.40;99.90
54642;DHT22;40536;53.194;5.728;2022-12-19T11:25:29;7.60;99.90
54642;DHT22;40536;53.194;5.728;2022-12-19T11:27:55;8.00;99.90
54642;DHT22;40536;53.194;5.728;2022-12-19T11:30:26;8.70;99.90
54642;DHT22;40536;53.194;5.728;2022-12-19T11:33:11;7.50;99.90
54642;DHT22;40536;53.194;5.728;2022-12-19T11:35:50;7.70;99.90
54642;DHT22;40536;53.194;5.728;2022-12-19T11:38:37;7.70;99.90
54642;DHT22;40536;53.194;5.728;2022-12-19T11:41:40;7.70;99.90
54642;DHT22;40536;53.194;5.728;2022-12-19T11:44:32;7.70;99.90
54642;DHT22;40536;53.194;5.728;2022-12-19T11:49:57;7.70;99.90
54642;DHT22;40536;53.194;5.728;2022-12-19T11:52:41;7.70;99.90
54642;DHT22;40536;53.194;5.728;2022-12-19T11:55:25;7.70;99.90
54642;DHT22;40536;53.194;5.728;2022-12-19T11:57:52;7.90;99.90
54642;DHT22;40536;53.194;5.728;2022-12-19T12:00:21;7.70;99.90
54642;DHT22;40536;53.194;5.728;2022-12-19T12:05:40;8.40;99.90
54642;DHT22;40536;53.194;5.728;2022-12-19T12:11:07;7.80;99.90
54642;DHT22;40536;53.194;5.728;2022-12-19T12:16:42;7.80;99.90
54642;DHT22;40536;53.194;5.728;2022-12-19T12:19:14;7.80;99.90
54642;DHT22;40536;53.194;5.728;2022-12-19T12:21:56;8.60;99.90
54642;DHT22;40536;53.194;5.728;2022-12-19T12:29:53;7.80;99.90
54642;DHT22;40536;53.194;5.728;2022-12-19T12:37:47;7.90;99.90
54642;DHT22;40536;53.194;5.728;2022-12-19T12:40:43;8.70;99.90
54642;DHT22;40536;53.194;5.728;2022-12-19T12:45:50;7.80;99.90
54642;DHT22;40536;53.194;5.728;2022-12-19T12:48:21;8.10;99.90
54642;DHT22;40536;53.194;5.728;2022-12-19T12:50:49;8.40;99.90
54642;DHT22;40536;53.194;5.728;2022-12-19T12:53:18;8.80;99.90
54642;DHT22;40536;53.194;5.728;2022-12-19T12:55:45;8.50;99.90
54642;DHT22;40536;53.194;5.728;2022-12-19T13:01:37;7.70;99.90
54642;DHT22;40536;53.194;5.728;2022-12-19T13:06:38;7.70;99.90
54642;DHT22;40536;53.194;5.728;2022-12-19T13:11:47;7.70;99.90
54642;DHT22;40536;53.194;5.728;2022-12-19T13:17:03;8.70;99.90
54642;DHT22;40536;53.194;5.728;2022-12-19T13:19:39;8.60;99.90
54642;DHT22;40536;53.194;5.728;2022-12-19T13:22:20;7.70;99.90
54642;DHT22;40536;53.194;5.728;2022-12-19T13:24:55;9.00;99.90
54642;DHT22;40536;53.194;5.728;2022-12-19T13:45:55;8.30;99.90
54642;DHT22;40536;53.194;5.728;2022-12-19T13:48:38;7.80;99.90
54642;DHT22;40536;53.194;5.728;2022-12-19T13:51:09;7.50;99.90
54642;DHT22;40536;53.194;5.728;2022-12-19T13:53:36;8.40;99.90
54642;DHT22;40536;53.194;5.728;2022-12-19T13:56:05;8.00;99.90
54642;DHT22;40536;53.194;5.728;2022-12-19T13:58:59;7.80;99.90
54642;DHT22;40536;53.194;5.728;2022-12-19T14:01:29;7.80;99.90
54642;DHT22;40536;53.194;5.728;2022-12-19T14:04:02;8.20;99.90
54642;DHT22;40536;53.194;5.728;2022-12-19T14:09:36;8.00;99.90
54642;DHT22;40536;53.194;5.728;2022-12-19T14:12:05;8.30;99.90
54642;DHT22;40536;53.194;5.728;2022-12-19T14:14:32;7.90;99.90
54642;DHT22;40536;53.194;5.728;2022-12-19T14:17:18;8.30;99.90
54642;DHT22;40536;53.194;5.728;2022-12-19T14:19:50;8.00;99.90
54642;DHT22;40536;53.194;5.728;2022-12-19T14:22:20;8.20;99.90
54642;DHT22;40536;53.194;5.728;2022-12-19T14:24:56;8.10;99.90
54642;DHT22;40536;53.194;5.728;2022-12-19T14:27:33;8.10;99.90
54642;DHT22;40536;53.194;5.728;2022-12-19T14:30:01;8.10;99.90
54642;DHT22;40536;53.194;5.728;2022-12-19T14:32:28;8.70;99.90
54642;DHT22;40536;53.194;5.728;2022-12-19T14:34:54;8.00;99.90
54642;DHT22;40536;53.194;5.728;2022-12-19T14:37:36;8.20;99.90
54642;DHT22;40536;53.194;5.728;2022-12-19T14:40:23;8.90;99.90
54642;DHT22;40536;53.194;5.728;2022-12-19T14:42:51;8.10;99.90
54642;DHT22;40536;53.194;5.728;2022-12-19T14:45:40;8.20;99.90
54642;DHT22;40536;53.194;5.728;2022-12-19T14:51:14;8.00;99.90
54642;DHT22;40536;53.194;5.728;2022-12-19T14:56:42;8.00;99.90
54642;DHT22;40536;53.194;5.728;2022-12-19T15:02:26;8.10;99.90
54642;DHT22;40536;53.194;5.728;2022-12-19T15:05:05;8.00;99.90
54642;DHT22;40536;53.194;5.728;2022-12-19T15:07:32;9.20;99.90
54642;DHT22;40536;53.194;5.728;2022-12-19T15:10:09;8.20;99.90
54642;DHT22;40536;53.194;5.728;2022-12-19T15:13:00;8.00;99.90
54642;DHT22;40536;53.194;5.728;2022-12-19T15:18:32;8.00;99.90
54642;DHT22;40536;53.194;5.728;2022-12-19T15:21:05;8.40;99.90
54642;DHT22;40536;53.194;5.728;2022-12-19T15:23:32;8.00;99.90
54642;DHT22;40536;53.194;5.728;2022-12-19T15:26:04;8.60;99.90
54642;DHT22;40536;53.194;5.728;2022-12-19T15:28:46;8.00;99.90
54642;DHT22;40536;53.194;5.728;2022-12-19T15:31:34;8.00;99.90
54642;DHT22;40536;53.194;5.728;2022-12-19T15:34:27;7.90;99.90
54642;DHT22;40536;53.194;5.728;2022-12-19T15:36:55;8.00;99.90
54642;DHT22;40536;53.194;5.728;2022-12-19T15:39:22;8.30;99.90
54642;DHT22;40536;53.194;5.728;2022-12-19T15:41:51;9.10;99.90
54642;DHT22;40536;53.194;5.728;2022-12-19T15:44:30;9.00;99.90
54642;DHT22;40536;53.194;5.728;2022-12-19T15:46:58;8.10;99.90
54642;DHT22;40536;53.194;5.728;2022-12-19T15:49:23;9.00;99.90
54642;DHT22;40536;53.194;5.728;2022-12-19T15:51:49;9.40;99.90
54642;DHT22;40536;53.194;5.728;2022-12-19T15:54:16;8.10;99.90
54642;DHT22;40536;53.194;5.728;2022-12-19T15:56:44;8.20;99.90
54642;DHT22;40536;53.194;5.728;2022-12-19T15:59:27;9.10;99.90
54642;DHT22;40536;53.194;5.728;2022-12-19T16:01:56;8.20;99.90
54642;DHT22;40536;53.194;5.728;2022-12-19T16:04:23;8.30;99.90
54642;DHT22;40536;53.194;5.728;2022-12-19T16:06:50;8.80;99.90
54642;DHT22;40536;53.194;5.728;2022-12-19T16:09:24;8.20;99.90
54642;DHT22;40536;53.194;5.728;2022-12-19T16:11:51;8.20;99.90
54642;DHT22;40536;53.194;5.728;2022-12-19T16:14:18;8.20;99.90
54642;DHT22;40536;53.194;5.728;2022-12-19T16:16:50;8.20;99.90
54642;DHT22;40536;53.194;5.728;2022-12-19T16:21:51;8.10;99.90
54642;DHT22;40536;53.194;5.728;2022-12-19T16:24:17;8.10;99.90
54642;DHT22;40536;53.194;5.728;2022-12-19T16:26:54;8.20;99.90
54642;DHT22;40536;53.194;5.728;2022-12-19T16:29:24;8.20;99.90
54642;DHT22;40536;53.194;5.728;2022-12-19T16:31:50;8.50;99.90
54642;DHT22;40536;53.194;5.728;2022-12-19T16:34:18;9.10;99.90
54642;DHT22;40536;53.194;5.728;2022-12-19T16:36:45;8.40;99.90
54642;DHT22;40536;53.194;5.728;2022-12-19T16:39:11;8.60;99.90
54642;DHT22;40536;53.194;5.728;2022-12-19T16:41:37;8.30;99.90
54642;DHT22;40536;53.194;5.728;2022-12-19T16:44:20;8.80;99.90
54642;DHT22;40536;53.194;5.728;2022-12-19T16:46:47;8.10;99.90
54642;DHT22;40536;53.194;5.728;2022-12-19T16:49:16;8.10;99.90
54642;DHT22;40536;53.194;5.728;2022-12-19T16:51:43;8.50;99.90
54642;DHT22;40536;53.194;5.728;2022-12-19T16:54:13;7.90;99.90
54642;DHT22;40536;53.194;5.728;2022-12-19T16:56:47;8.00;99.90
54642;DHT22;40536;53.194;5.728;2022-12-19T16:59:15;8.00;99.90
54642;DHT22;40536;53.194;5.728;2022-12-19T17:01:43;8.80;99.90
54642;DHT22;40536;53.194;5.728;2022-12-19T17:04:21;8.00;99.90
54642;DHT22;40536;53.194;5.728;2022-12-19T17:06:50;7.90;99.90
54642;DHT22;40536;53.194;5.728;2022-12-19T17:09:25;6.90;99.90
54642;DHT22;40536;53.194;5.728;2022-12-19T17:11:55;9.10;99.90
54642;DHT22;40536;53.194;5.728;2022-12-19T17:14:24;7.90;99.90
54642;DHT22;40536;53.194;5.728;2022-12-19T17:16:51;8.90;99.90
54642;DHT22;40536;53.194;5.728;2022-12-19T17:19:24;9.10;99.90
54642;DHT22;40536;53.194;5.728;2022-12-19T17:21:51;8.00;99.90
54642;DHT22;40536;53.194;5.728;2022-12-19T17:24:17;8.90;99.90
54642;DHT22;40536;53.194;5.728;2022-12-19T17:26:43;8.60;99.90
54642;DHT22;40536;53.194;5.728;2022-12-19T17:29:10;7.90;99.90
54642;DHT22;40536;53.194;5.728;2022-12-19T17:31:36;8.40;99.90
54642;DHT22;40536;53.194;5.728;2022-12-19T17:34:16;8.90;99.90
54642;DHT22;40536;53.194;5.728;2022-12-19T17:36:42;6.80;99.90
54642;DHT22;40536;53.194;5.728;2022-12-19T17:39:24;8.70;99.90
54642;DHT22;40536;53.194;5.728;2022-12-19T17:41:50;8.40;99.90
54642;DHT22;40536;53.194;5.728;2022-12-19T17:44:16;7.90;99.90
54642;DHT22;40536;53.194;5.728;2022-12-19T17:46:44;8.60;99.90
54642;DHT22;40536;53.194;5.728;2022-12-19T17:49:29;7.80;99.90
54642;DHT22;40536;53.194;5.728;2022-12-19T17:51:56;7.80;99.90
54642;DHT22;40536;53.194;5.728;2022-12-19T17:54:22;7.90;99.90
54642;DHT22;40536;53.194;5.728;2022-12-19T17:56:49;7.60;99.90
54642;DHT22;40536;53.194;5.728;2022-12-19T17:59:15;7.50;99.90
54642;DHT22;40536;53.194;5.728;2022-12-19T18:01:42;8.70;99.90
54642;DHT22;40536;53.194;5.728;2022-12-19T18:04:13;8.70;99.90
54642;DHT22;40536;53.194;5.728;2022-12-19T18:06:40;7.40;99.90
54642;DHT22;40536;53.194;5.728;2022-12-19T18:09:21;7.80;99.90
54642;DHT22;40536;53.194;5.728;2022-12-19T18:11:48;7.70;99.90
54642;DHT22;40536;53.194;5.728;2022-12-19T18:14:15;7.60;99.90
54642;DHT22;40536;53.194;5.728;2022-12-19T18:16:41;7.20;99.90
54642;DHT22;40536;53.194;5.728;2022-12-19T18:19:22;7.20;99.90
54642;DHT22;40536;53.194;5.728;2022-12-19T18:21:49;7.60;99.90
54642;DHT22;40536;53.194;5.728;2022-12-19T18:24:15;8.00;99.90
54642;DHT22;40536;53.194;5.728;2022-12-19T18:26:42;7.20;99.90
54642;DHT22;40536;53.194;5.728;2022-12-19T18:29:08;8.20;99.90
54642;DHT22;40536;53.194;5.728;2022-12-19T18:31:34;8.50;99.90